Terminal Aerodrome Forecast
Issued by NWS

Home | Current Version | Previous Version | Text Only | Print | Product List | Glossary On
Versions: 1 2 3 4 5 6 7 8 9 10 11 12
000
FTUS45 KVEF 301120
TAFBIH
TAF
KBIH 301120Z 3012/3112 VRB06KT P6SM SCT250
     FM301700 16010KT P6SM SCT250
     FM301900 17015G22KT P6SM SCT250
     FM310300 15011KT P6SM SCT250=

USA.gov is the U.S. government's official web portal to all federal, state and local government web resources and services.